Wishaw, United Kingdom
Current Conditions -  °F | °C
As of 8:20 AM on Sunday 21 Dec 2014 (Local Time) from EGPF Reporting Station
Light Rain Light Rain  
Wind Chill: 41°   Ceiling: 1100
Heat Index: 48°   Visibility: 3mi
Dew Point: 46°   Wind: 23mph
Humidity: 93%   Direction: 220°SW
Pressure: 29.91"   Gusts: NA
Location:  55.77°N, 3.92°W
Report Text: EGPF 210820Z AUTO 22020KT 4900 -RA OVC011/// //////TCU 09/08 Q1013 RERA
Loading
Personal Weather Stations






























Interactive Weather Map New forecast layout! Learn more

10-Day Weather Forecast

Advertisements
Track Severe Weather on mobile